sensor_id;sensor_type;location;lat;lon;timestamp;pressure;altitude;pressure_sealevel;temperature;humidity
14689;BME280;7432;48.728;9.154;2023-12-07T00:01:17;142381.38;;;2.09;96.89
14689;BME280;7432;48.728;9.154;2023-12-07T00:03:43;142381.38;;;2.09;97.11
14689;BME280;7432;48.728;9.154;2023-12-07T00:06:10;142391.00;;;2.13;97.40
14689;BME280;7432;48.728;9.154;2023-12-07T00:08:37;142388.59;;;2.12;97.01
14689;BME280;7432;48.728;9.154;2023-12-07T00:11:04;142377.78;;;2.07;96.89
14689;BME280;7432;48.728;9.154;2023-12-07T00:13:31;142391.00;;;2.13;97.15
14689;BME280;7432;48.728;9.154;2023-12-07T00:15:57;142387.38;;;2.11;96.85
14689;BME280;7432;48.728;9.154;2023-12-07T00:18:24;142386.16;;;2.11;97.22
14689;BME280;7432;48.728;9.154;2023-12-07T00:20:50;142383.78;;;2.10;97.61
14689;BME280;7432;48.728;9.154;2023-12-07T00:23:16;142377.78;;;2.07;97.03
14689;BME280;7432;48.728;9.154;2023-12-07T00:25:44;142385.00;;;2.10;96.94
14689;BME280;7432;48.728;9.154;2023-12-07T00:28:11;142386.16;;;2.11;96.96
14689;BME280;7432;48.728;9.154;2023-12-07T00:30:37;142388.59;;;2.12;96.59
14689;BME280;7432;48.728;9.154;2023-12-07T00:33:03;142386.16;;;2.11;96.96
14689;BME280;7432;48.728;9.154;2023-12-07T00:35:29;142394.59;;;2.14;97.09
14689;BME280;7432;48.728;9.154;2023-12-07T00:37:56;142394.59;;;2.14;95.91
14689;BME280;7432;48.728;9.154;2023-12-07T00:40:22;142401.81;;;2.17;96.42
14689;BME280;7432;48.728;9.154;2023-12-07T00:42:50;142389.81;;;2.12;96.28
14689;BME280;7432;48.728;9.154;2023-12-07T00:45:16;142394.59;;;2.14;95.53
14689;BME280;7432;48.728;9.154;2023-12-07T00:47:43;142395.81;;;2.15;95.96
14689;BME280;7432;48.728;9.154;2023-12-07T00:50:11;142400.59;;;2.17;96.03
14689;BME280;7432;48.728;9.154;2023-12-07T00:52:38;142422.25;;;2.26;95.14
14689;BME280;7432;48.728;9.154;2023-12-07T00:55:05;142411.41;;;2.21;94.64
14689;BME280;7432;48.728;9.154;2023-12-07T00:57:32;142409.03;;;2.20;95.26
14689;BME280;7432;48.728;9.154;2023-12-07T00:59:59;142400.59;;;2.17;95.35
14689;BME280;7432;48.728;9.154;2023-12-07T01:02:26;142398.22;;;2.16;95.15
14689;BME280;7432;48.728;9.154;2023-12-07T01:04:52;142404.22;;;2.18;95.10
14689;BME280;7432;48.728;9.154;2023-12-07T01:07:18;142391.00;;;2.13;95.40
14689;BME280;7432;48.728;9.154;2023-12-07T01:09:45;142388.59;;;2.12;94.71
14689;BME280;7432;48.728;9.154;2023-12-07T01:12:12;142395.81;;;2.15;93.67
14689;BME280;7432;48.728;9.154;2023-12-07T01:14:38;142382.59;;;2.09;92.94
14689;BME280;7432;48.728;9.154;2023-12-07T01:17:06;142385.00;;;2.10;94.28
14689;BME280;7432;48.728;9.154;2023-12-07T01:19:32;142391.00;;;2.13;92.85
14689;BME280;7432;48.728;9.154;2023-12-07T01:21:59;142370.59;;;2.04;93.48
14689;BME280;7432;48.728;9.154;2023-12-07T01:24:25;142365.75;;;2.02;93.45
14689;BME280;7432;48.728;9.154;2023-12-07T01:26:52;142353.72;;;1.97;93.46
14689;BME280;7432;48.728;9.154;2023-12-07T01:29:18;142365.75;;;2.02;93.14
14689;BME280;7432;48.728;9.154;2023-12-07T01:31:44;142352.56;;;1.97;93.12
14689;BME280;7432;48.728;9.154;2023-12-07T01:34:12;142342.94;;;1.93;92.91
14689;BME280;7432;48.728;9.154;2023-12-07T01:36:38;142338.16;;;1.91;92.76
14689;BME280;7432;48.728;9.154;2023-12-07T01:39:05;142346.53;;;1.94;93.28
14689;BME280;7432;48.728;9.154;2023-12-07T01:41:31;142326.13;;;1.86;93.04
14689;BME280;7432;48.728;9.154;2023-12-07T01:43:58;142308.09;;;1.78;93.68
14689;BME280;7432;48.728;9.154;2023-12-07T01:46:25;142312.94;;;1.80;93.98
14689;BME280;7432;48.728;9.154;2023-12-07T01:48:51;142312.94;;;1.80;94.15
14689;BME280;7432;48.728;9.154;2023-12-07T01:51:20;142330.94;;;1.88;93.51
14689;BME280;7432;48.728;9.154;2023-12-07T01:53:47;142335.72;;;1.90;94.05
14689;BME280;7432;48.728;9.154;2023-12-07T01:56:14;142327.31;;;1.86;94.42
14689;BME280;7432;48.728;9.154;2023-12-07T01:58:41;142338.16;;;1.91;93.55
14689;BME280;7432;48.728;9.154;2023-12-07T02:01:08;142359.75;;;2.00;92.59
14689;BME280;7432;48.728;9.154;2023-12-07T02:03:39;142341.72;;;1.92;93.10
14689;BME280;7432;48.728;9.154;2023-12-07T02:06:06;142317.72;;;1.82;93.07
14689;BME280;7432;48.728;9.154;2023-12-07T02:08:35;142314.09;;;1.80;92.82
14689;BME280;7432;48.728;9.154;2023-12-07T02:11:01;142309.28;;;1.78;92.66
14689;BME280;7432;48.728;9.154;2023-12-07T02:13:28;142302.09;;;1.75;93.01
14689;BME280;7432;48.728;9.154;2023-12-07T02:15:55;142293.72;;;1.72;95.24
14689;BME280;7432;48.728;9.154;2023-12-07T02:18:27;142291.28;;;1.71;94.92
14689;BME280;7432;48.728;9.154;2023-12-07T02:20:59;142256.44;;;1.56;94.68
14689;BME280;7432;48.728;9.154;2023-12-07T02:23:28;142239.66;;;1.49;95.37
14689;BME280;7432;48.728;9.154;2023-12-07T02:26:02;142222.81;;;1.42;94.23
14689;BME280;7432;48.728;9.154;2023-12-07T02:28:30;142195.25;;;1.31;94.52
14689;BME280;7432;48.728;9.154;2023-12-07T02:30:56;142161.63;;;1.16;95.64
14689;BME280;7432;48.728;9.154;2023-12-07T02:33:23;142159.19;;;1.15;95.06
14689;BME280;7432;48.728;9.154;2023-12-07T02:35:49;142144.78;;;1.09;95.95
14689;BME280;7432;48.728;9.154;2023-12-07T02:38:16;142136.41;;;1.06;95.38
14689;BME280;7432;48.728;9.154;2023-12-07T02:40:44;142110.00;;;0.95;95.84
14689;BME280;7432;48.728;9.154;2023-12-07T02:43:12;142076.41;;;0.81;96.86
14689;BME280;7432;48.728;9.154;2023-12-07T02:45:40;142063.19;;;0.75;97.51
14689;BME280;7432;48.728;9.154;2023-12-07T02:48:07;142060.78;;;0.74;97.70
14689;BME280;7432;48.728;9.154;2023-12-07T02:50:33;142035.59;;;0.64;96.90
14689;BME280;7432;48.728;9.154;2023-12-07T02:52:59;142012.81;;;0.54;97.79
14689;BME280;7432;48.728;9.154;2023-12-07T02:55:26;141990.00;;;0.44;98.61
14689;BME280;7432;48.728;9.154;2023-12-07T02:57:52;141991.19;;;0.45;98.79
14689;BME280;7432;48.728;9.154;2023-12-07T03:00:18;141986.41;;;0.43;98.63
14689;BME280;7432;48.728;9.154;2023-12-07T03:02:47;141963.59;;;0.33;98.79
14689;BME280;7432;48.728;9.154;2023-12-07T03:05:15;141968.44;;;0.35;98.24
14689;BME280;7432;48.728;9.154;2023-12-07T03:07:42;141975.59;;;0.38;99.13
14689;BME280;7432;48.728;9.154;2023-12-07T03:10:08;141963.59;;;0.33;99.45
14689;BME280;7432;48.728;9.154;2023-12-07T03:12:35;141949.25;;;0.27;99.78
14689;BME280;7432;48.728;9.154;2023-12-07T03:15:01;141960.03;;;0.32;99.33
14689;BME280;7432;48.728;9.154;2023-12-07T03:17:28;141952.81;;;0.29;98.58
14689;BME280;7432;48.728;9.154;2023-12-07T03:19:55;141939.63;;;0.23;99.83
14689;BME280;7432;48.728;9.154;2023-12-07T03:22:22;141908.44;;;0.10;99.59
14689;BME280;7432;48.728;9.154;2023-12-07T03:24:51;141913.22;;;0.12;100.00
14689;BME280;7432;48.728;9.154;2023-12-07T03:27:17;141914.44;;;0.13;100.00
14689;BME280;7432;48.728;9.154;2023-12-07T03:29:44;141916.84;;;0.14;100.00
14689;BME280;7432;48.728;9.154;2023-12-07T03:32:11;141916.84;;;0.14;99.74
14689;BME280;7432;48.728;9.154;2023-12-07T03:34:37;141936.03;;;0.22;99.31
14689;BME280;7432;48.728;9.154;2023-12-07T03:37:05;141924.00;;;0.17;100.00
14689;BME280;7432;48.728;9.154;2023-12-07T03:39:32;141920.44;;;0.15;99.55
14689;BME280;7432;48.728;9.154;2023-12-07T03:41:58;141903.66;;;0.08;100.00
14689;BME280;7432;48.728;9.154;2023-12-07T03:44:24;141892.84;;;0.04;100.00
14689;BME280;7432;48.728;9.154;2023-12-07T03:46:51;141898.84;;;0.06;100.00
14689;BME280;7432;48.728;9.154;2023-12-07T03:49:18;141907.25;;;0.10;100.00
14689;BME280;7432;48.728;9.154;2023-12-07T03:51:44;141896.47;;;0.05;100.00
14689;BME280;7432;48.728;9.154;2023-12-07T03:54:12;141894.03;;;0.04;100.00
14689;BME280;7432;48.728;9.154;2023-12-07T03:56:38;141896.47;;;0.05;100.00
14689;BME280;7432;48.728;9.154;2023-12-07T03:59:06;141900.03;;;0.07;100.00
14689;BME280;7432;48.728;9.154;2023-12-07T04:01:32;141890.47;;;0.03;100.00
14689;BME280;7432;48.728;9.154;2023-12-07T04:03:58;141889.25;;;0.02;100.00
14689;BME280;7432;48.728;9.154;2023-12-07T04:06:26;141903.66;;;0.08;100.00
14689;BME280;7432;48.728;9.154;2023-12-07T04:08:52;141890.47;;;0.03;100.00
14689;BME280;7432;48.728;9.154;2023-12-07T04:11:20;141882.06;;;-0.01;100.00
14689;BME280;7432;48.728;9.154;2023-12-07T04:13:47;141880.84;;;-0.02;100.00
14689;BME280;7432;48.728;9.154;2023-12-07T04:16:14;141877.28;;;-0.03;100.00
14689;BME280;7432;48.728;9.154;2023-12-07T04:18:41;141878.44;;;-0.03;100.00
14689;BME280;7432;48.728;9.154;2023-12-07T04:21:08;141846.06;;;-0.16;100.00
14689;BME280;7432;48.728;9.154;2023-12-07T04:23:34;141855.69;;;-0.12;100.00
14689;BME280;7432;48.728;9.154;2023-12-07T04:26:00;141850.91;;;-0.14;100.00
14689;BME280;7432;48.728;9.154;2023-12-07T04:28:28;141841.28;;;-0.18;100.00
14689;BME280;7432;48.728;9.154;2023-12-07T04:30:54;141832.88;;;-0.22;100.00
14689;BME280;7432;48.728;9.154;2023-12-07T04:33:21;141837.69;;;-0.20;100.00
14689;BME280;7432;48.728;9.154;2023-12-07T04:35:48;141842.50;;;-0.18;100.00
14689;BME280;7432;48.728;9.154;2023-12-07T04:38:15;141848.47;;;-0.15;100.00
14689;BME280;7432;48.728;9.154;2023-12-07T04:40:41;141819.69;;;-0.27;100.00
14689;BME280;7432;48.728;9.154;2023-12-07T04:43:08;141812.53;;;-0.30;100.00
14689;BME280;7432;48.728;9.154;2023-12-07T04:45:35;141823.31;;;-0.26;100.00
14689;BME280;7432;48.728;9.154;2023-12-07T04:48:02;141823.31;;;-0.26;100.00
14689;BME280;7432;48.728;9.154;2023-12-07T04:50:28;141812.53;;;-0.30;100.00
14689;BME280;7432;48.728;9.154;2023-12-07T04:52:55;141788.53;;;-0.40;100.00
14689;BME280;7432;48.728;9.154;2023-12-07T04:55:22;141784.94;;;-0.42;100.00
14689;BME280;7432;48.728;9.154;2023-12-07T04:57:48;141788.53;;;-0.40;100.00
14689;BME280;7432;48.728;9.154;2023-12-07T05:00:15;141786.16;;;-0.41;100.00
14689;BME280;7432;48.728;9.154;2023-12-07T05:02:44;141784.94;;;-0.42;100.00
14689;BME280;7432;48.728;9.154;2023-12-07T05:05:10;141784.94;;;-0.42;100.00
14689;BME280;7432;48.728;9.154;2023-12-07T05:07:36;141754.97;;;-0.54;100.00
14689;BME280;7432;48.728;9.154;2023-12-07T05:10:03;141758.56;;;-0.53;100.00
14689;BME280;7432;48.728;9.154;2023-12-07T05:12:30;141776.56;;;-0.45;100.00
14689;BME280;7432;48.728;9.154;2023-12-07T05:14:56;141783.75;;;-0.42;100.00
14689;BME280;7432;48.728;9.154;2023-12-07T05:17:23;141771.75;;;-0.47;100.00
14689;BME280;7432;48.728;9.154;2023-12-07T05:19:50;141750.19;;;-0.56;100.00
14689;BME280;7432;48.728;9.154;2023-12-07T05:22:17;141753.81;;;-0.55;100.00
14689;BME280;7432;48.728;9.154;2023-12-07T05:24:43;141759.78;;;-0.52;100.00
14689;BME280;7432;48.728;9.154;2023-12-07T05:27:09;141741.78;;;-0.60;100.00
14689;BME280;7432;48.728;9.154;2023-12-07T05:29:36;141768.16;;;-0.49;100.00
14689;BME280;7432;48.728;9.154;2023-12-07T05:32:02;141759.78;;;-0.52;100.00
14689;BME280;7432;48.728;9.154;2023-12-07T05:34:29;141762.16;;;-0.51;100.00
14689;BME280;7432;48.728;9.154;2023-12-07T05:36:56;141737.00;;;-0.62;100.00
14689;BME280;7432;48.728;9.154;2023-12-07T05:39:23;141721.44;;;-0.69;100.00
14689;BME280;7432;48.728;9.154;2023-12-07T05:41:49;141709.41;;;-0.74;100.00
14689;BME280;7432;48.728;9.154;2023-12-07T05:44:15;141710.63;;;-0.73;100.00
14689;BME280;7432;48.728;9.154;2023-12-07T05:46:46;141722.59;;;-0.68;100.00
14689;BME280;7432;48.728;9.154;2023-12-07T05:49:13;141717.81;;;-0.70;100.00
14689;BME280;7432;48.728;9.154;2023-12-07T05:51:39;141713.03;;;-0.72;100.00
14689;BME280;7432;48.728;9.154;2023-12-07T05:54:07;141713.03;;;-0.72;100.00
14689;BME280;7432;48.728;9.154;2023-12-07T05:56:33;141703.44;;;-0.76;100.00
14689;BME280;7432;48.728;9.154;2023-12-07T05:58:59;141726.22;;;-0.67;100.00
14689;BME280;7432;48.728;9.154;2023-12-07T06:01:26;141726.22;;;-0.67;100.00
14689;BME280;7432;48.728;9.154;2023-12-07T06:03:52;141723.81;;;-0.68;100.00
14689;BME280;7432;48.728;9.154;2023-12-07T06:06:18;141708.25;;;-0.74;100.00
14689;BME280;7432;48.728;9.154;2023-12-07T06:08:46;141697.44;;;-0.79;100.00
14689;BME280;7432;48.728;9.154;2023-12-07T06:11:14;141683.09;;;-0.85;100.00
14689;BME280;7432;48.728;9.154;2023-12-07T06:13:40;141683.09;;;-0.85;100.00
14689;BME280;7432;48.728;9.154;2023-12-07T06:16:11;141677.06;;;-0.87;100.00
14689;BME280;7432;48.728;9.154;2023-12-07T06:18:38;141697.44;;;-0.79;100.00
14689;BME280;7432;48.728;9.154;2023-12-07T06:21:04;141698.66;;;-0.78;100.00
14689;BME280;7432;48.728;9.154;2023-12-07T06:23:31;141665.09;;;-0.92;100.00
14689;BME280;7432;48.728;9.154;2023-12-07T06:25:59;141683.09;;;-0.85;100.00
14689;BME280;7432;48.728;9.154;2023-12-07T06:28:26;141690.25;;;-0.82;100.00
14689;BME280;7432;48.728;9.154;2023-12-07T06:30:53;141661.50;;;-0.94;100.00
14689;BME280;7432;48.728;9.154;2023-12-07T06:33:19;141667.50;;;-0.91;100.00
14689;BME280;7432;48.728;9.154;2023-12-07T06:35:46;141662.72;;;-0.93;100.00
14689;BME280;7432;48.728;9.154;2023-12-07T06:38:13;141669.91;;;-0.90;100.00
14689;BME280;7432;48.728;9.154;2023-12-07T06:40:39;141662.72;;;-0.93;100.00
14689;BME280;7432;48.728;9.154;2023-12-07T06:43:06;141659.09;;;-0.95;100.00
14689;BME280;7432;48.728;9.154;2023-12-07T06:45:33;141669.91;;;-0.90;100.00
14689;BME280;7432;48.728;9.154;2023-12-07T06:48:00;141655.53;;;-0.96;100.00
14689;BME280;7432;48.728;9.154;2023-12-07T06:50:26;141633.94;;;-1.05;100.00
14689;BME280;7432;48.728;9.154;2023-12-07T06:52:53;141648.34;;;-0.99;100.00
14689;BME280;7432;48.728;9.154;2023-12-07T06:55:20;141643.56;;;-1.01;100.00
14689;BME280;7432;48.728;9.154;2023-12-07T06:57:47;141618.34;;;-1.12;100.00
14689;BME280;7432;48.728;9.154;2023-12-07T07:00:14;141631.53;;;-1.06;100.00
14689;BME280;7432;48.728;9.154;2023-12-07T07:02:44;141633.94;;;-1.05;100.00
14689;BME280;7432;48.728;9.154;2023-12-07T07:05:10;141624.38;;;-1.09;100.00
14689;BME280;7432;48.728;9.154;2023-12-07T07:07:37;141633.94;;;-1.05;100.00
14689;BME280;7432;48.728;9.154;2023-12-07T07:10:04;141630.38;;;-1.07;100.00
14689;BME280;7432;48.728;9.154;2023-12-07T07:12:31;141636.34;;;-1.04;100.00
14689;BME280;7432;48.728;9.154;2023-12-07T07:14:57;141643.56;;;-1.01;100.00
14689;BME280;7432;48.728;9.154;2023-12-07T07:17:24;141641.13;;;-1.02;100.00
14689;BME280;7432;48.728;9.154;2023-12-07T07:19:51;141638.72;;;-1.03;100.00
14689;BME280;7432;48.728;9.154;2023-12-07T07:22:19;141625.53;;;-1.09;100.00
14689;BME280;7432;48.728;9.154;2023-12-07T07:24:45;141644.72;;;-1.01;100.00
14689;BME280;7432;48.728;9.154;2023-12-07T07:27:12;141649.53;;;-0.99;100.00
14689;BME280;7432;48.728;9.154;2023-12-07T07:29:38;141649.53;;;-0.99;100.00
14689;BME280;7432;48.728;9.154;2023-12-07T07:32:05;141672.28;;;-0.89;100.00
14689;BME280;7432;48.728;9.154;2023-12-07T07:34:31;141643.56;;;-1.01;100.00
14689;BME280;7432;48.728;9.154;2023-12-07T07:36:59;141637.56;;;-1.04;100.00
14689;BME280;7432;48.728;9.154;2023-12-07T07:39:25;141667.50;;;-0.91;100.00
14689;BME280;7432;48.728;9.154;2023-12-07T07:41:52;141691.44;;;-0.81;100.00
14689;BME280;7432;48.728;9.154;2023-12-07T07:44:18;141701.06;;;-0.77;100.00
14689;BME280;7432;48.728;9.154;2023-12-07T07:46:45;141731.00;;;-0.65;100.00
14689;BME280;7432;48.728;9.154;2023-12-07T07:49:11;141830.50;;;-0.23;100.00
14689;BME280;7432;48.728;9.154;2023-12-07T07:51:37;142395.81;;;2.15;97.43
14689;BME280;7432;48.728;9.154;2023-12-07T07:54:05;143154.97;;;5.33;82.67
14689;BME280;7432;48.728;9.154;2023-12-07T07:56:32;143672.38;;;7.49;70.70
14689;BME280;7432;48.728;9.154;2023-12-07T07:58:58;144161.69;;;9.53;62.19
14689;BME280;7432;48.728;9.154;2023-12-07T08:01:25;144531.97;;;11.08;56.07
14689;BME280;7432;48.728;9.154;2023-12-07T08:03:52;144677.25;;;11.68;51.26
14689;BME280;7432;48.728;9.154;2023-12-07T08:06:18;144461.75;;;10.79;51.70
14689;BME280;7432;48.728;9.154;2023-12-07T08:08:45;144051.69;;;9.08;55.08
14689;BME280;7432;48.728;9.154;2023-12-07T08:11:14;143507.09;;;6.80;60.59
14689;BME280;7432;48.728;9.154;2023-12-07T08:13:40;143058.63;;;4.93;67.63
14689;BME280;7432;48.728;9.154;2023-12-07T08:16:07;142870.81;;;4.14;71.12
14689;BME280;7432;48.728;9.154;2023-12-07T08:18:34;142685.50;;;3.36;74.71
14689;BME280;7432;48.728;9.154;2023-12-07T08:21:01;142589.28;;;2.96;78.00
14689;BME280;7432;48.728;9.154;2023-12-07T08:23:27;142465.47;;;2.44;80.44
14689;BME280;7432;48.728;9.154;2023-12-07T08:25:55;142386.16;;;2.11;83.89
14689;BME280;7432;48.728;9.154;2023-12-07T08:28:23;142332.13;;;1.88;85.54
14689;BME280;7432;48.728;9.154;2023-12-07T08:30:50;142298.50;;;1.74;86.30
14689;BME280;7432;48.728;9.154;2023-12-07T08:33:16;142275.66;;;1.64;87.61
14689;BME280;7432;48.728;9.154;2023-12-07T08:35:42;142248.06;;;1.53;88.33
14689;BME280;7432;48.728;9.154;2023-12-07T08:38:09;142238.44;;;1.49;89.89
14689;BME280;7432;48.728;9.154;2023-12-07T08:40:35;142221.66;;;1.42;90.00
14689;BME280;7432;48.728;9.154;2023-12-07T08:43:01;142218.03;;;1.40;90.35
14689;BME280;7432;48.728;9.154;2023-12-07T08:45:29;142214.44;;;1.39;90.96
14689;BME280;7432;48.728;9.154;2023-12-07T08:47:55;142214.44;;;1.39;91.90
14689;BME280;7432;48.728;9.154;2023-12-07T08:50:22;142214.44;;;1.39;91.97
14689;BME280;7432;48.728;9.154;2023-12-07T08:52:48;142206.03;;;1.35;92.94
14689;BME280;7432;48.728;9.154;2023-12-07T08:55:14;142202.44;;;1.34;93.09
14689;BME280;7432;48.728;9.154;2023-12-07T08:57:42;142204.81;;;1.35;92.69
14689;BME280;7432;48.728;9.154;2023-12-07T09:00:09;142214.44;;;1.39;93.16
14689;BME280;7432;48.728;9.154;2023-12-07T09:02:37;142222.81;;;1.42;92.95
14689;BME280;7432;48.728;9.154;2023-12-07T09:05:04;142236.03;;;1.48;93.37
14689;BME280;7432;48.728;9.154;2023-12-07T09:07:30;142233.66;;;1.47;93.20
14689;BME280;7432;48.728;9.154;2023-12-07T09:09:56;142245.66;;;1.52;91.93
14689;BME280;7432;48.728;9.154;2023-12-07T09:12:23;142249.25;;;1.53;92.34
14689;BME280;7432;48.728;9.154;2023-12-07T09:14:49;142256.44;;;1.56;92.16
14689;BME280;7432;48.728;9.154;2023-12-07T09:17:15;142273.28;;;1.63;91.47
14689;BME280;7432;48.728;9.154;2023-12-07T09:19:45;142285.28;;;1.68;89.37
14689;BME280;7432;48.728;9.154;2023-12-07T09:22:12;142284.09;;;1.68;89.19
14689;BME280;7432;48.728;9.154;2023-12-07T09:24:41;142294.88;;;1.72;87.85
14689;BME280;7432;48.728;9.154;2023-12-07T09:27:07;142296.09;;;1.73;88.61
14689;BME280;7432;48.728;9.154;2023-12-07T09:29:33;142306.94;;;1.77;88.80
14689;BME280;7432;48.728;9.154;2023-12-07T09:32:00;142303.28;;;1.76;89.65
14689;BME280;7432;48.728;9.154;2023-12-07T09:34:26;142327.31;;;1.86;90.29
14689;BME280;7432;48.728;9.154;2023-12-07T09:37:06;142338.16;;;1.91;89.26
14689;BME280;7432;48.728;9.154;2023-12-07T09:39:33;142356.16;;;1.98;88.64
14689;BME280;7432;48.728;9.154;2023-12-07T09:42:00;142359.75;;;2.00;88.32
14689;BME280;7432;48.728;9.154;2023-12-07T09:44:26;142371.78;;;2.05;87.85
14689;BME280;7432;48.728;9.154;2023-12-07T09:46:53;142352.56;;;1.97;87.36
14689;BME280;7432;48.728;9.154;2023-12-07T09:49:19;142369.38;;;2.04;86.02
14689;BME280;7432;48.728;9.154;2023-12-07T09:51:46;142362.16;;;2.01;84.88
14689;BME280;7432;48.728;9.154;2023-12-07T09:54:14;142357.38;;;1.99;85.61
14689;BME280;7432;48.728;9.154;2023-12-07T09:56:41;142356.16;;;1.98;85.28
14689;BME280;7432;48.728;9.154;2023-12-07T09:59:08;142370.59;;;2.04;85.07
14689;BME280;7432;48.728;9.154;2023-12-07T10:01:34;142362.16;;;2.01;85.35
14689;BME280;7432;48.728;9.154;2023-12-07T10:04:19;142366.94;;;2.03;82.71
14689;BME280;7432;48.728;9.154;2023-12-07T10:06:48;142389.81;;;2.12;83.23
14689;BME280;7432;48.728;9.154;2023-12-07T10:09:15;142409.03;;;2.20;83.42
14689;BME280;7432;48.728;9.154;2023-12-07T10:11:44;142400.59;;;2.17;82.19
14689;BME280;7432;48.728;9.154;2023-12-07T10:14:10;142377.78;;;2.07;83.79
14689;BME280;7432;48.728;9.154;2023-12-07T10:16:37;142376.59;;;2.07;84.32
14689;BME280;7432;48.728;9.154;2023-12-07T10:19:13;142372.94;;;2.05;85.59
14689;BME280;7432;48.728;9.154;2023-12-07T10:21:39;142378.97;;;2.08;84.59
14689;BME280;7432;48.728;9.154;2023-12-07T10:24:06;142395.81;;;2.15;84.44
14689;BME280;7432;48.728;9.154;2023-12-07T10:26:34;142412.59;;;2.22;84.68
14689;BME280;7432;48.728;9.154;2023-12-07T10:29:02;142434.25;;;2.31;84.47
14689;BME280;7432;48.728;9.154;2023-12-07T10:31:28;142433.03;;;2.30;84.35
14689;BME280;7432;48.728;9.154;2023-12-07T10:33:56;142451.06;;;2.38;83.43
14689;BME280;7432;48.728;9.154;2023-12-07T10:36:22;142443.84;;;2.35;83.14
14689;BME280;7432;48.728;9.154;2023-12-07T10:38:49;142454.69;;;2.39;84.48
14689;BME280;7432;48.728;9.154;2023-12-07T10:41:18;142466.69;;;2.45;82.65
14689;BME280;7432;48.728;9.154;2023-12-07T10:43:49;142483.50;;;2.52;82.00
14689;BME280;7432;48.728;9.154;2023-12-07T10:46:19;142491.94;;;2.55;81.09
14689;BME280;7432;48.728;9.154;2023-12-07T10:48:47;142484.72;;;2.52;81.10
14689;BME280;7432;48.728;9.154;2023-12-07T10:51:17;142494.34;;;2.56;79.74
14689;BME280;7432;48.728;9.154;2023-12-07T10:53:45;142511.16;;;2.63;77.26
14689;BME280;7432;48.728;9.154;2023-12-07T10:56:20;142503.94;;;2.60;77.66
14689;BME280;7432;48.728;9.154;2023-12-07T10:58:54;142488.34;;;2.54;78.77
14689;BME280;7432;48.728;9.154;2023-12-07T11:01:22;142481.13;;;2.51;79.27
14689;BME280;7432;48.728;9.154;2023-12-07T11:03:49;142491.94;;;2.55;80.58
14689;BME280;7432;48.728;9.154;2023-12-07T11:06:18;142494.34;;;2.56;77.67
14689;BME280;7432;48.728;9.154;2023-12-07T11:08:49;142531.59;;;2.72;74.91
14689;BME280;7432;48.728;9.154;2023-12-07T11:11:21;142530.38;;;2.71;74.85
14689;BME280;7432;48.728;9.154;2023-12-07T11:13:54;142534.03;;;2.73;72.97
14689;BME280;7432;48.728;9.154;2023-12-07T11:16:29;142530.38;;;2.71;74.12
14689;BME280;7432;48.728;9.154;2023-12-07T11:18:55;142544.81;;;2.77;72.81
14689;BME280;7432;48.728;9.154;2023-12-07T11:21:21;142571.28;;;2.88;74.99
14689;BME280;7432;48.728;9.154;2023-12-07T11:23:48;142561.63;;;2.84;74.85
14689;BME280;7432;48.728;9.154;2023-12-07T11:26:14;142574.88;;;2.90;73.06
14689;BME280;7432;48.728;9.154;2023-12-07T11:28:44;142574.88;;;2.90;73.67
14689;BME280;7432;48.728;9.154;2023-12-07T11:31:13;142595.31;;;2.98;73.19
14689;BME280;7432;48.728;9.154;2023-12-07T11:33:39;142598.94;;;3.00;72.50
14689;BME280;7432;48.728;9.154;2023-12-07T11:36:09;142603.75;;;3.02;73.19
14689;BME280;7432;48.728;9.154;2023-12-07T11:38:37;142597.72;;;2.99;72.98
14689;BME280;7432;48.728;9.154;2023-12-07T11:41:04;142589.28;;;2.96;73.21
14689;BME280;7432;48.728;9.154;2023-12-07T11:43:40;142604.94;;;3.03;73.39
14689;BME280;7432;48.728;9.154;2023-12-07T11:46:09;142609.75;;;3.05;74.61
14689;BME280;7432;48.728;9.154;2023-12-07T11:48:37;142620.56;;;3.09;73.99
14689;BME280;7432;48.728;9.154;2023-12-07T11:51:05;142619.38;;;3.09;74.02
14689;BME280;7432;48.728;9.154;2023-12-07T11:53:33;142630.19;;;3.13;73.03
14689;BME280;7432;48.728;9.154;2023-12-07T11:56:01;142647.00;;;3.20;72.18
14689;BME280;7432;48.728;9.154;2023-12-07T11:58:28;142661.44;;;3.26;71.42
14689;BME280;7432;48.728;9.154;2023-12-07T12:00:55;142671.09;;;3.30;70.62
14689;BME280;7432;48.728;9.154;2023-12-07T12:03:22;142657.88;;;3.25;69.93
14689;BME280;7432;48.728;9.154;2023-12-07T12:05:50;142662.66;;;3.27;69.66
14689;BME280;7432;48.728;9.154;2023-12-07T12:08:18;142666.25;;;3.28;68.86
14689;BME280;7432;48.728;9.154;2023-12-07T12:10:45;142666.25;;;3.28;68.21
14689;BME280;7432;48.728;9.154;2023-12-07T12:13:12;142649.44;;;3.21;68.26
14689;BME280;7432;48.728;9.154;2023-12-07T12:15:39;142648.22;;;3.21;67.62
14689;BME280;7432;48.728;9.154;2023-12-07T12:18:06;142638.63;;;3.17;67.65
14689;BME280;7432;48.728;9.154;2023-12-07T12:20:33;142632.63;;;3.14;67.21
14689;BME280;7432;48.728;9.154;2023-12-07T12:23:01;142589.28;;;2.96;68.59
14689;BME280;7432;48.728;9.154;2023-12-07T12:25:28;142610.97;;;3.05;69.26
14689;BME280;7432;48.728;9.154;2023-12-07T12:27:56;142619.38;;;3.09;69.59
14689;BME280;7432;48.728;9.154;2023-12-07T12:30:23;142622.97;;;3.10;69.15
14689;BME280;7432;48.728;9.154;2023-12-07T12:32:49;142618.19;;;3.08;70.09
14689;BME280;7432;48.728;9.154;2023-12-07T12:35:16;142625.41;;;3.11;70.82
14689;BME280;7432;48.728;9.154;2023-12-07T12:37:43;142631.41;;;3.14;70.71
14689;BME280;7432;48.728;9.154;2023-12-07T12:40:13;142621.75;;;3.10;70.89
14689;BME280;7432;48.728;9.154;2023-12-07T12:42:42;142636.22;;;3.16;72.40
14689;BME280;7432;48.728;9.154;2023-12-07T12:45:10;142635.00;;;3.15;72.44
14689;BME280;7432;48.728;9.154;2023-12-07T12:47:37;142637.41;;;3.16;71.34
14689;BME280;7432;48.728;9.154;2023-12-07T12:50:04;142656.66;;;3.24;70.62
14689;BME280;7432;48.728;9.154;2023-12-07T12:52:32;142665.09;;;3.28;71.52
14689;BME280;7432;48.728;9.154;2023-12-07T12:54:58;142686.69;;;3.37;70.77
14689;BME280;7432;48.728;9.154;2023-12-07T12:57:26;142687.91;;;3.37;70.17
14689;BME280;7432;48.728;9.154;2023-12-07T12:59:53;142680.69;;;3.34;70.59
14689;BME280;7432;48.728;9.154;2023-12-07T13:02:20;142686.69;;;3.37;71.27
14689;BME280;7432;48.728;9.154;2023-12-07T13:04:46;142709.59;;;3.46;70.93